createdAt,value
2022-08-25T00:01:56.397Z,8.18
2022-08-25T00:04:24.394Z,8.40
2022-08-25T00:06:52.771Z,8.10
2022-08-25T00:09:23.163Z,7.82
2022-08-25T00:11:50.511Z,8.70
2022-08-25T00:14:23.980Z,8.15
2022-08-25T00:16:50.517Z,8.10
2022-08-25T00:19:20.822Z,8.90
2022-08-25T00:21:47.639Z,8.70
2022-08-25T00:24:17.226Z,8.95
2022-08-25T00:26:48.541Z,9.00
2022-08-25T00:29:15.560Z,8.63
2022-08-25T00:31:42.597Z,8.38
2022-08-25T00:34:12.361Z,9.48
2022-08-25T00:36:39.499Z,8.55
2022-08-25T00:39:08.166Z,8.40
2022-08-25T00:41:35.988Z,8.35
2022-08-25T00:44:06.212Z,8.70
2022-08-25T00:46:42.331Z,9.40
2022-08-25T00:49:24.740Z,8.50
2022-08-25T00:52:14.960Z,8.60
2022-08-25T00:54:53.179Z,8.75
2022-08-25T00:57:35.114Z,8.18
2022-08-25T01:00:06.777Z,8.15
2022-08-25T01:02:33.312Z,8.60
2022-08-25T01:04:59.756Z,8.77
2022-08-25T01:07:26.219Z,8.70
2022-08-25T01:09:53.306Z,8.85
2022-08-25T01:12:20.574Z,9.30
2022-08-25T01:14:48.826Z,9.20
2022-08-25T01:17:16.180Z,9.13
2022-08-25T01:19:42.804Z,8.73
2022-08-25T01:22:11.886Z,8.60
2022-08-25T01:24:46.407Z,9.00
2022-08-25T01:27:13.512Z,8.73
2022-08-25T01:29:40.148Z,9.05
2022-08-25T01:32:10.243Z,9.02
2022-08-25T01:34:40.932Z,8.70
2022-08-25T01:37:07.942Z,8.80
2022-08-25T01:39:38.585Z,8.02
2022-08-25T01:42:11.306Z,8.02
2022-08-25T01:44:40.792Z,8.77
2022-08-25T01:47:08.248Z,8.57
2022-08-25T01:49:35.160Z,8.98
2022-08-25T01:52:10.329Z,9.52
2022-08-25T01:54:36.768Z,8.60
2022-08-25T01:57:03.441Z,9.48
2022-08-25T01:59:30.276Z,8.40
2022-08-25T02:01:59.893Z,8.88
2022-08-25T02:04:31.933Z,8.98
2022-08-25T02:07:03.796Z,8.77
2022-08-25T02:09:30.581Z,8.52
2022-08-25T02:11:57.259Z,8.35
2022-08-25T02:14:23.844Z,8.60
2022-08-25T02:16:52.205Z,8.40
2022-08-25T02:19:20.487Z,8.20
2022-08-25T02:21:47.117Z,8.15
2022-08-25T02:24:14.031Z,8.63
2022-08-25T02:26:42.210Z,7.90
2022-08-25T02:29:09.459Z,8.23
2022-08-25T02:31:36.468Z,8.30
2022-08-25T02:34:03.996Z,8.32
2022-08-25T02:36:32.044Z,8.52
2022-08-25T02:38:58.700Z,8.20
2022-08-25T02:41:31.321Z,7.53
2022-08-25T02:43:58.751Z,7.15
2022-08-25T02:46:25.292Z,8.20
2022-08-25T02:48:53.200Z,7.65
2022-08-25T02:51:28.299Z,7.40
2022-08-25T02:53:54.755Z,7.63
2022-08-25T02:56:21.413Z,8.32
2022-08-25T02:58:48.319Z,8.55
2022-08-25T03:01:16.385Z,8.55
2022-08-25T03:03:45.040Z,9.13
2022-08-25T03:06:14.488Z,8.70
2022-08-25T03:08:42.043Z,8.90
2022-08-25T03:11:08.472Z,9.70
2022-08-25T03:13:35.176Z,8.80
2022-08-25T03:16:04.728Z,8.25
2022-08-25T03:18:31.655Z,8.48
2022-08-25T03:20:58.902Z,9.05
2022-08-25T03:23:25.874Z,10.05
2022-08-25T03:26:13.596Z,10.38
2022-08-25T03:28:41.628Z,9.77
2022-08-25T03:31:09.089Z,10.20
2022-08-25T03:33:36.392Z,10.75
2022-08-25T03:36:03.311Z,9.90
2022-08-25T03:38:29.806Z,10.45
2022-08-25T03:40:56.247Z,10.50
2022-08-25T03:43:22.879Z,9.68
2022-08-25T03:45:49.583Z,8.90
2022-08-25T03:48:17.291Z,9.45
2022-08-25T03:50:51.558Z,9.02
2022-08-25T03:53:19.148Z,8.40
2022-08-25T03:55:45.595Z,7.55
2022-08-25T03:58:12.297Z,7.90
2022-08-25T04:00:39.487Z,7.30
2022-08-25T04:03:06.289Z,8.23
2022-08-25T04:05:32.959Z,7.80
2022-08-25T04:08:01.627Z,7.65
2022-08-25T04:10:29.027Z,8.45
2022-08-25T04:12:56.043Z,8.60
2022-08-25T04:15:22.829Z,8.30
2022-08-25T04:17:51.838Z,8.13
2022-08-25T04:20:19.056Z,8.85
2022-08-25T04:22:45.789Z,7.78
2022-08-25T04:25:12.517Z,8.05
2022-08-25T04:27:39.080Z,7.78
2022-08-25T04:30:06.599Z,8.07
2022-08-25T04:32:35.189Z,7.88
2022-08-25T04:35:01.679Z,8.55
2022-08-25T04:37:28.142Z,7.70
2022-08-25T04:39:54.585Z,7.78
2022-08-25T04:42:21.674Z,7.55
2022-08-25T04:44:48.666Z,7.20
2022-08-25T04:47:15.116Z,7.25
2022-08-25T04:49:41.647Z,7.82
2022-08-25T04:52:13.197Z,7.57
2022-08-25T04:54:41.109Z,8.35
2022-08-25T04:57:07.533Z,8.00
2022-08-25T04:59:34.255Z,8.20
2022-08-25T05:02:05.110Z,7.97
2022-08-25T05:04:33.798Z,7.73
2022-08-25T05:07:00.996Z,8.23
2022-08-25T05:09:28.064Z,8.23
2022-08-25T05:11:54.850Z,8.43
2022-08-25T05:14:26.366Z,8.88
2022-08-25T05:16:54.738Z,8.77
2022-08-25T05:19:21.991Z,9.20
2022-08-25T05:21:48.464Z,8.65
2022-08-25T05:24:14.999Z,8.52
2022-08-25T05:26:43.384Z,7.80
2022-08-25T05:29:10.914Z,8.15
2022-08-25T05:31:42.327Z,8.30
2022-08-25T05:34:11.858Z,7.80
2022-08-25T05:36:43.017Z,9.20
2022-08-25T05:39:10.257Z,8.73
2022-08-25T05:41:37.051Z,9.02
2022-08-25T05:44:03.759Z,8.27
2022-08-25T05:46:31.553Z,8.55
2022-08-25T05:48:58.834Z,8.77
2022-08-25T05:51:26.195Z,8.25
2022-08-25T05:53:52.840Z,8.43
2022-08-25T05:56:20.174Z,7.93
2022-08-25T05:58:47.527Z,7.90
2022-08-25T06:01:43.467Z,8.07
2022-08-25T06:04:12.114Z,8.18
2022-08-25T06:06:39.343Z,7.90
2022-08-25T06:09:08.432Z,7.85
2022-08-25T06:11:37.911Z,6.95
2022-08-25T06:14:04.750Z,7.15
2022-08-25T06:16:31.782Z,6.90
2022-08-25T06:18:58.401Z,6.53
2022-08-25T06:21:25.228Z,7.47
2022-08-25T06:23:51.674Z,6.93
2022-08-25T06:26:21.325Z,7.45
2022-08-25T06:28:49.008Z,7.07
2022-08-25T06:31:15.557Z,7.45
2022-08-25T06:33:42.108Z,8.38
2022-08-25T06:36:08.719Z,8.15
2022-08-25T06:38:35.740Z,9.38
2022-08-25T06:41:04.332Z,8.00
2022-08-25T06:43:33.088Z,7.88
2022-08-25T06:46:11.510Z,8.25
2022-08-25T06:48:38.359Z,8.70
2022-08-25T06:51:07.309Z,8.80
2022-08-25T06:53:34.220Z,8.10
2022-08-25T06:56:05.952Z,7.75
2022-08-25T06:58:33.828Z,8.18
2022-08-25T07:01:19.721Z,6.97
2022-08-25T07:03:48.010Z,8.20
2022-08-25T07:06:15.258Z,7.47
2022-08-25T07:08:46.453Z,7.20
2022-08-25T07:11:17.357Z,7.43
2022-08-25T07:13:45.356Z,7.25
2022-08-25T07:16:12.719Z,6.93
2022-08-25T07:18:39.327Z,7.13
2022-08-25T07:21:08.888Z,6.07
2022-08-25T07:23:36.848Z,5.75
2022-08-25T07:26:36.354Z,5.38
2022-08-25T07:29:12.063Z,4.90
2022-08-25T07:31:39.416Z,5.40
2022-08-25T07:34:26.117Z,4.40
2022-08-25T07:36:54.037Z,3.88
2022-08-25T07:39:21.991Z,4.18
2022-08-25T07:41:52.232Z,4.05
2022-08-25T07:44:21.628Z,4.32
2022-08-25T07:46:50.229Z,4.03
2022-08-25T07:49:18.136Z,3.97
2022-08-25T07:52:05.697Z,3.97
2022-08-25T07:54:35.551Z,3.88
2022-08-25T07:59:39.329Z,3.92
2022-08-25T08:02:09.024Z,4.07
2022-08-25T08:04:46.249Z,4.70
2022-08-25T08:07:12.760Z,3.75
2022-08-25T08:09:39.297Z,4.10
2022-08-25T08:12:06.538Z,3.85
2022-08-25T08:14:32.968Z,4.10
2022-08-25T08:16:59.815Z,4.00
2022-08-25T08:19:26.518Z,4.57
2022-08-25T08:21:54.333Z,4.05
2022-08-25T08:24:40.818Z,4.35
2022-08-25T08:27:11.335Z,4.38
2022-08-25T08:29:39.156Z,4.43
2022-08-25T08:32:09.648Z,4.07
2022-08-25T08:34:36.763Z,4.30
2022-08-25T08:37:03.570Z,4.05
2022-08-25T08:39:30.227Z,4.03
2022-08-25T08:42:17.373Z,4.30
2022-08-25T08:44:46.754Z,4.10
2022-08-25T08:47:31.269Z,3.88
2022-08-25T08:50:04.085Z,4.45
2022-08-25T08:52:43.228Z,4.07
2022-08-25T08:55:39.479Z,3.88
2022-08-25T08:58:13.050Z,3.38
2022-08-25T09:00:52.346Z,3.65
2022-08-25T09:03:27.225Z,4.05
2022-08-25T09:05:57.579Z,3.78
2022-08-25T09:08:24.019Z,3.70
2022-08-25T09:11:31.026Z,3.60
2022-08-25T09:14:16.254Z,3.60
2022-08-25T09:16:54.818Z,3.67
2022-08-25T09:20:02.953Z,4.15
2022-08-25T09:23:03.126Z,3.55
2022-08-25T09:25:56.242Z,3.40
2022-08-25T09:28:36.471Z,3.25
2022-08-25T09:31:12.516Z,3.92
2022-08-25T09:33:39.251Z,3.63
2022-08-25T09:36:08.843Z,3.50
2022-08-25T09:38:36.267Z,3.72
2022-08-25T09:41:03.781Z,3.40
2022-08-25T09:43:33.068Z,3.25
2022-08-25T09:46:23.220Z,3.60
2022-08-25T09:48:59.273Z,3.50
2022-08-25T09:51:42.479Z,3.08
2022-08-25T09:54:12.663Z,3.30
2022-08-25T09:56:49.901Z,3.92
2022-08-25T09:59:34.427Z,3.70
2022-08-25T10:02:23.824Z,3.30
2022-08-25T10:04:50.724Z,3.55
2022-08-25T10:07:27.552Z,3.53
2022-08-25T10:09:57.380Z,3.80
2022-08-25T10:12:37.259Z,3.33
2022-08-25T10:15:29.073Z,4.07
2022-08-25T10:17:56.576Z,3.33
2022-08-25T10:20:27.165Z,3.67
2022-08-25T10:23:13.025Z,2.85
2022-08-25T10:26:00.411Z,3.80
2022-08-25T10:28:41.352Z,3.58
2022-08-25T10:31:22.338Z,3.17
2022-08-25T10:33:52.392Z,3.40
2022-08-25T10:36:23.344Z,3.22
2022-08-25T10:39:01.855Z,3.42
2022-08-25T10:41:43.864Z,3.20
2022-08-25T10:44:52.730Z,3.55
2022-08-25T10:47:39.253Z,3.42
2022-08-25T10:50:08.353Z,3.00
2022-08-25T10:52:39.271Z,3.20
2022-08-25T10:55:25.951Z,2.95
2022-08-25T10:58:23.261Z,2.83
2022-08-25T11:01:18.667Z,2.97
2022-08-25T11:03:59.674Z,3.00
2022-08-25T11:06:40.543Z,3.67
2022-08-25T11:09:12.895Z,2.83
2022-08-25T11:11:46.290Z,2.83
2022-08-25T11:14:35.420Z,2.95
2022-08-25T11:17:09.731Z,3.33
2022-08-25T11:19:49.002Z,84.07
2022-08-25T11:22:36.936Z,3.38
2022-08-25T11:25:25.827Z,2.88
2022-08-25T11:28:06.216Z,2.50
2022-08-25T11:30:33.175Z,2.60
2022-08-25T11:33:00.062Z,2.60
2022-08-25T11:35:58.868Z,2.50
2022-08-25T11:39:00.956Z,2.80
2022-08-25T11:44:53.251Z,2.70
2022-08-25T11:47:38.417Z,2.88
2022-08-25T11:50:25.873Z,2.67
2022-08-25T11:53:02.234Z,2.55
2022-08-25T11:55:34.847Z,2.72
2022-08-25T11:58:40.590Z,2.88
2022-08-25T12:01:43.071Z,2.92
2022-08-25T12:04:44.406Z,2.85
2022-08-25T12:07:14.870Z,2.60
2022-08-25T12:09:50.831Z,2.60
2022-08-25T12:12:56.484Z,3.10
2022-08-25T12:15:32.157Z,2.88
2022-08-25T12:18:15.442Z,2.67
2022-08-25T12:20:54.780Z,2.75
2022-08-25T12:24:02.833Z,2.92
2022-08-25T12:26:40.303Z,2.65
2022-08-25T12:29:25.006Z,2.65
2022-08-25T12:31:57.452Z,2.85
2022-08-25T12:34:44.239Z,2.63
2022-08-25T12:37:16.425Z,2.90
2022-08-25T12:40:06.464Z,2.53
2022-08-25T12:42:40.765Z,2.60
2022-08-25T12:45:34.380Z,2.70
2022-08-25T12:48:25.992Z,2.65
2022-08-25T12:50:57.661Z,2.70
2022-08-25T12:53:40.368Z,2.85
2022-08-25T12:56:31.351Z,2.70
2022-08-25T12:59:18.647Z,3.08
2022-08-25T13:02:10.056Z,2.70
2022-08-25T13:04:55.048Z,2.80
2022-08-25T13:07:21.506Z,2.83
2022-08-25T13:10:07.452Z,2.72
2022-08-25T13:12:46.605Z,3.25
2022-08-25T13:15:15.974Z,2.80
2022-08-25T13:17:42.827Z,3.10
2022-08-25T13:20:15.282Z,3.00
2022-08-25T13:22:46.863Z,2.92
2022-08-25T13:25:18.554Z,2.72
2022-08-25T13:27:57.476Z,3.10
2022-08-25T13:30:36.550Z,2.85
2022-08-25T13:33:21.798Z,2.50
2022-08-25T13:35:52.377Z,2.63
2022-08-25T13:38:19.437Z,2.85
2022-08-25T13:40:46.018Z,3.10
2022-08-25T13:43:14.170Z,2.90
2022-08-25T13:45:47.219Z,2.75
2022-08-25T13:48:30.817Z,3.05
2022-08-25T13:51:23.665Z,2.80
2022-08-25T13:54:02.728Z,3.15
2022-08-25T13:56:41.830Z,3.10
2022-08-25T13:59:40.104Z,2.97
2022-08-25T14:02:09.168Z,3.00
2022-08-25T14:04:51.572Z,3.00
2022-08-25T14:07:34.036Z,2.83
2022-08-25T14:10:31.161Z,2.70
2022-08-25T14:13:14.462Z,3.40
2022-08-25T14:15:45.046Z,3.20
2022-08-25T14:18:26.889Z,2.78
2022-08-25T14:20:56.029Z,3.00
2022-08-25T14:23:26.926Z,2.97
2022-08-25T14:25:56.396Z,2.92
2022-08-25T14:28:25.979Z,3.13
2022-08-25T14:31:08.779Z,2.90
2022-08-25T14:34:00.925Z,2.90
2022-08-25T14:36:29.795Z,3.00
2022-08-25T14:38:57.519Z,2.88
2022-08-25T14:41:25.371Z,2.92
2022-08-25T14:43:52.548Z,2.75
2022-08-25T14:46:24.653Z,3.10
2022-08-25T14:48:56.555Z,2.95
2022-08-25T14:51:25.725Z,3.10
2022-08-25T14:53:57.314Z,3.15
2022-08-25T14:56:24.096Z,2.80
2022-08-25T14:58:54.438Z,3.00
2022-08-25T15:01:28.445Z,2.83
2022-08-25T15:04:01.696Z,3.20
2022-08-25T15:06:28.540Z,3.20
2022-08-25T15:09:08.244Z,3.17
2022-08-25T15:11:36.452Z,2.92
2022-08-25T15:14:05.383Z,2.85
2022-08-25T15:16:50.751Z,4.45
2022-08-25T15:19:19.824Z,4.53
2022-08-25T15:21:47.777Z,4.45
2022-08-25T15:24:17.504Z,3.63
2022-08-25T15:31:53.939Z,4.85
2022-08-25T15:34:20.566Z,3.45
2022-08-25T15:36:47.670Z,4.22
2022-08-25T15:39:15.072Z,3.30
2022-08-25T15:41:46.093Z,3.33
2022-08-25T15:44:16.031Z,3.42
2022-08-25T15:46:47.083Z,3.90
2022-08-25T15:49:16.279Z,3.20
2022-08-25T15:51:52.224Z,3.65
2022-08-25T15:54:18.696Z,3.33
2022-08-25T15:56:45.832Z,3.42
2022-08-25T15:59:13.463Z,3.35
2022-08-25T16:01:41.302Z,3.78
2022-08-25T16:04:07.851Z,3.60
2022-08-25T16:06:34.351Z,3.00
2022-08-25T16:09:01.760Z,3.20
2022-08-25T16:11:30.433Z,3.60
2022-08-25T16:13:57.514Z,3.30
2022-08-25T16:16:26.854Z,3.60
2022-08-25T16:18:54.190Z,3.40
2022-08-25T16:21:25.956Z,2.97
2022-08-25T16:23:59.733Z,6.55
2022-08-25T16:26:30.776Z,4.00
2022-08-25T16:28:57.624Z,3.25
2022-08-25T16:31:24.589Z,3.05
2022-08-25T16:33:54.678Z,3.78
2022-08-25T16:36:27.087Z,3.90
2022-08-25T16:38:55.390Z,2.88
2022-08-25T16:41:25.312Z,3.08
2022-08-25T16:43:52.797Z,3.42
2022-08-25T16:46:20.987Z,3.35
2022-08-25T16:48:48.621Z,3.35
2022-08-25T16:51:19.287Z,3.65
2022-08-25T16:54:07.523Z,3.40
2022-08-25T16:56:35.691Z,3.28
2022-08-25T16:59:06.233Z,3.00
2022-08-25T17:01:36.357Z,2.97
2022-08-25T17:04:04.514Z,3.40
2022-08-25T17:06:35.659Z,3.30
2022-08-25T17:11:35.074Z,3.95
2022-08-25T17:14:04.520Z,3.65
2022-08-25T17:16:37.826Z,3.80
2022-08-25T17:19:08.070Z,3.30
2022-08-25T17:21:45.119Z,3.55
2022-08-25T17:24:13.247Z,3.75
2022-08-25T17:26:45.963Z,4.60
2022-08-25T17:29:12.742Z,5.55
2022-08-25T17:31:39.988Z,5.43
2022-08-25T17:34:12.836Z,5.43
2022-08-25T17:36:43.483Z,5.80
2022-08-25T17:39:12.357Z,6.10
2022-08-25T17:41:39.653Z,6.47
2022-08-25T17:44:07.284Z,5.85
2022-08-25T17:46:33.907Z,6.07
2022-08-25T17:49:00.566Z,5.93
2022-08-25T17:51:29.703Z,6.35
2022-08-25T17:53:59.072Z,7.15
2022-08-25T17:56:27.225Z,6.50
2022-08-25T17:58:55.880Z,6.57
2022-08-25T18:01:28.302Z,6.53
2022-08-25T18:03:56.152Z,5.93
2022-08-25T18:06:23.785Z,6.25
2022-08-25T18:08:52.176Z,6.28
2022-08-25T18:11:21.554Z,6.30
2022-08-25T18:13:48.019Z,6.15
2022-08-25T18:16:17.215Z,7.13
2022-08-25T18:18:44.501Z,6.07
2022-08-25T18:21:13.568Z,6.60
2022-08-25T18:23:41.733Z,7.63
2022-08-25T18:26:08.918Z,6.82
2022-08-25T18:28:39.530Z,7.80
2022-08-25T18:31:06.499Z,8.05
2022-08-25T18:33:34.124Z,7.95
2022-08-25T18:36:02.068Z,7.72
2022-08-25T18:38:47.458Z,7.88
2022-08-25T18:41:13.947Z,7.18
2022-08-25T18:43:40.696Z,7.50
2022-08-25T18:46:08.270Z,7.82
2022-08-25T18:48:36.883Z,8.25
2022-08-25T18:51:04.583Z,8.25
2022-08-25T18:53:37.483Z,8.50
2022-08-25T18:56:16.452Z,7.80
2022-08-25T18:58:42.900Z,7.95
2022-08-25T19:01:14.362Z,8.00
2022-08-25T19:03:43.023Z,10.02
2022-08-25T19:06:09.814Z,9.57
2022-08-25T19:08:39.388Z,12.30
2022-08-25T19:11:08.539Z,13.10
2022-08-25T19:13:35.112Z,13.57
2022-08-25T19:16:34.176Z,16.00
2022-08-25T19:19:01.395Z,16.63
2022-08-25T19:21:30.133Z,20.35
2022-08-25T19:23:56.584Z,20.00
2022-08-25T19:26:23.536Z,20.75
2022-08-25T19:28:52.638Z,21.33
2022-08-25T19:31:24.592Z,21.67
2022-08-25T19:33:53.160Z,23.08
2022-08-25T19:36:27.943Z,25.10
2022-08-25T19:38:58.178Z,26.88
2022-08-25T19:41:25.067Z,27.85
2022-08-25T19:43:56.402Z,28.63
2022-08-25T19:46:33.120Z,27.05
2022-08-25T19:49:09.540Z,29.52
2022-08-25T19:51:38.236Z,30.45
2022-08-25T19:54:06.857Z,32.70
2022-08-25T19:56:36.259Z,31.90
2022-08-25T19:59:03.657Z,32.80
2022-08-25T20:01:30.167Z,34.92
2022-08-25T20:03:56.958Z,33.60
2022-08-25T20:06:24.205Z,32.45
2022-08-25T20:08:58.809Z,34.92
2022-08-25T20:11:28.748Z,37.15
2022-08-25T20:13:58.281Z,35.35
2022-08-25T20:16:28.270Z,35.00
2022-08-25T20:18:55.035Z,33.92
2022-08-25T20:21:21.590Z,33.50
2022-08-25T20:24:07.470Z,33.15
2022-08-25T20:26:36.529Z,31.38
2022-08-25T20:29:05.154Z,30.55
2022-08-25T20:31:32.440Z,27.45
2022-08-25T20:34:00.992Z,25.15
2022-08-25T20:36:30.016Z,24.37
2022-08-25T20:38:59.158Z,23.80
2022-08-25T20:41:25.771Z,23.35
2022-08-25T20:43:52.345Z,21.35
2022-08-25T20:46:19.074Z,21.75
2022-08-25T20:48:45.601Z,22.17
2022-08-25T20:51:12.921Z,20.10
2022-08-25T20:53:42.324Z,19.48
2022-08-25T20:56:19.200Z,20.10
2022-08-25T20:58:46.384Z,20.40
2022-08-25T21:01:23.187Z,20.58
2022-08-25T21:03:50.588Z,19.00
2022-08-25T21:06:17.695Z,18.98
2022-08-25T21:08:46.792Z,19.35
2022-08-25T21:11:15.428Z,18.55
2022-08-25T21:13:42.033Z,19.60
2022-08-25T21:16:08.981Z,18.13
2022-08-25T21:18:36.233Z,17.55
2022-08-25T21:21:12.246Z,18.85
2022-08-25T21:23:40.038Z,17.60
2022-08-25T21:26:13.696Z,17.15
2022-08-25T21:28:40.155Z,17.83
2022-08-25T21:31:15.211Z,18.60
2022-08-25T21:33:42.758Z,18.20
2022-08-25T21:36:11.369Z,17.48
2022-08-25T21:38:39.984Z,17.65
2022-08-25T21:41:15.439Z,17.25
2022-08-25T21:43:42.475Z,16.30
2022-08-25T21:46:13.418Z,15.10
2022-08-25T21:48:40.145Z,12.48
2022-08-25T21:51:13.532Z,11.43
2022-08-25T21:53:40.459Z,11.52
2022-08-25T21:56:17.266Z,11.25
2022-08-25T21:58:46.484Z,10.20
2022-08-25T22:01:19.868Z,10.00
2022-08-25T22:03:47.367Z,10.30
2022-08-25T22:06:14.883Z,10.13
2022-08-25T22:08:43.192Z,9.57
2022-08-25T22:11:10.709Z,9.43
2022-08-25T22:13:37.983Z,9.27
2022-08-25T22:16:07.756Z,8.90
2022-08-25T22:18:34.738Z,8.93
2022-08-25T22:21:01.529Z,8.35
2022-08-25T22:23:44.100Z,8.68
2022-08-25T22:26:12.027Z,7.80
2022-08-25T22:28:39.171Z,7.40
2022-08-25T22:33:37.130Z,7.15
2022-08-25T22:36:28.475Z,6.68
2022-08-25T22:38:55.699Z,6.28
2022-08-25T22:41:23.629Z,7.43
2022-08-25T22:43:53.017Z,6.32
2022-08-25T22:46:21.540Z,6.90
2022-08-25T22:48:50.377Z,5.70
2022-08-25T22:51:27.043Z,6.10
2022-08-25T22:53:54.629Z,5.70
2022-08-25T22:56:29.736Z,6.50
2022-08-25T22:59:02.544Z,4.82
2022-08-25T23:01:29.591Z,4.85
2022-08-25T23:03:56.050Z,4.90
2022-08-25T23:06:25.012Z,5.40
2022-08-25T23:08:53.591Z,4.32
2022-08-25T23:11:22.246Z,4.40
2022-08-25T23:13:49.596Z,4.05
2022-08-25T23:16:17.089Z,4.05
2022-08-25T23:18:44.858Z,5.05
2022-08-25T23:21:35.061Z,3.80
2022-08-25T23:24:05.408Z,3.25
2022-08-25T23:26:36.271Z,3.47
2022-08-25T23:29:07.803Z,3.20
2022-08-25T23:31:44.650Z,3.47
2022-08-25T23:34:11.448Z,3.47
2022-08-25T23:36:39.805Z,3.53
2022-08-25T23:39:07.009Z,3.80
2022-08-25T23:41:34.787Z,3.80
2022-08-25T23:44:05.199Z,4.15
2022-08-25T23:46:34.752Z,3.90
2022-08-25T23:49:03.029Z,4.85
2022-08-25T23:51:37.161Z,3.65
2022-08-25T23:54:07.010Z,3.55
2022-08-25T23:56:36.771Z,3.95
2022-08-25T23:59:10.590Z,4.28
